createdAt,value
2019-03-20T00:00:20.443Z,13.03
2019-03-20T00:02:49.797Z,15.80
2019-03-20T00:05:18.532Z,14.40
2019-03-20T00:07:46.993Z,12.13
2019-03-20T00:10:15.561Z,15.70
2019-03-20T00:12:44.017Z,10.47
2019-03-20T00:15:14.801Z,11.33
2019-03-20T00:17:43.444Z,13.03
2019-03-20T00:20:13.441Z,7.77
2019-03-20T00:22:43.377Z,13.72
2019-03-20T00:25:12.413Z,9.30
2019-03-20T00:27:41.010Z,14.17
2019-03-20T00:30:14.455Z,16.43
2019-03-20T00:32:43.029Z,15.37
2019-03-20T00:35:12.035Z,19.33
2019-03-20T00:37:40.556Z,18.40
2019-03-20T00:40:16.348Z,21.73
2019-03-20T00:42:44.810Z,7.87
2019-03-20T00:45:15.480Z,22.23
2019-03-20T00:47:43.988Z,15.47
2019-03-20T00:50:16.637Z,11.90
2019-03-20T00:52:45.089Z,8.30
2019-03-20T00:55:14.972Z,11.07
2019-03-20T00:57:43.774Z,11.53
2019-03-20T01:00:19.881Z,9.13
2019-03-20T01:02:48.328Z,12.90
2019-03-20T01:05:16.949Z,14.33
2019-03-20T01:07:45.736Z,15.30
2019-03-20T01:10:16.368Z,13.25
2019-03-20T01:12:44.908Z,15.58
2019-03-20T01:15:13.579Z,14.30
2019-03-20T01:17:42.293Z,15.40
2019-03-20T01:20:21.775Z,7.67
2019-03-20T01:22:50.360Z,12.60
2019-03-20T01:25:19.106Z,7.87
2019-03-20T01:27:47.828Z,12.43
2019-03-20T01:30:32.372Z,21.52
2019-03-20T01:33:02.190Z,22.60
2019-03-20T01:35:31.612Z,10.58
2019-03-20T01:38:00.066Z,21.53
2019-03-20T01:40:28.637Z,26.50
2019-03-20T01:42:57.328Z,29.80
2019-03-20T01:45:25.954Z,21.75
2019-03-20T01:47:54.537Z,21.70
2019-03-20T01:50:23.076Z,21.55
2019-03-20T01:52:51.685Z,16.50
2019-03-20T01:55:20.198Z,20.97
2019-03-20T01:57:48.731Z,30.25
2019-03-20T02:00:17.281Z,23.65
2019-03-20T02:02:45.881Z,27.70
2019-03-20T02:05:14.951Z,16.45
2019-03-20T04:05:31.734Z,14.87
2019-03-20T04:08:00.263Z,6.10
2019-03-20T04:10:28.819Z,8.45
2019-03-20T04:12:57.308Z,7.70
2019-03-20T04:15:25.772Z,10.93
2019-03-20T04:17:54.316Z,7.80
2019-03-20T04:20:22.895Z,10.23
2019-03-20T04:22:51.346Z,15.90
2019-03-20T04:25:19.883Z,8.47
2019-03-20T04:27:48.404Z,12.23
2019-03-20T04:30:18.095Z,8.90
2019-03-20T04:32:46.788Z,15.53
2019-03-20T04:35:15.520Z,19.67
2019-03-20T04:37:43.985Z,18.23
2019-03-20T04:40:13.985Z,11.50
2019-03-20T04:42:42.552Z,15.38
2019-03-20T04:45:14.463Z,8.13
2019-03-20T04:47:42.894Z,8.20
2019-03-20T04:50:12.349Z,10.50
2019-03-20T04:52:40.812Z,23.47
2019-03-20T04:55:09.707Z,14.00
2019-03-20T04:57:38.189Z,23.57
2019-03-20T05:00:09.939Z,10.18
2019-03-20T05:02:38.483Z,16.02
2019-03-20T05:05:07.154Z,12.67
2019-03-20T05:07:36.018Z,22.82
2019-03-20T05:10:07.810Z,17.47
2019-03-20T05:12:36.314Z,20.97
2019-03-20T05:15:07.040Z,14.73
2019-03-20T05:17:35.555Z,8.48
2019-03-20T05:20:06.289Z,8.47
2019-03-20T05:22:34.760Z,19.67
2019-03-20T05:25:03.407Z,13.03
2019-03-20T05:27:31.913Z,16.83
2019-03-20T05:30:00.372Z,14.50
2019-03-20T05:32:28.918Z,16.27
2019-03-20T05:34:57.412Z,16.47
2019-03-20T05:37:25.874Z,8.77
2019-03-20T05:39:55.876Z,9.20
2019-03-20T05:42:24.394Z,16.23
2019-03-20T05:44:52.860Z,12.00
2019-03-20T05:47:21.408Z,16.07
2019-03-20T05:49:50.119Z,13.40
2019-03-20T05:52:18.558Z,13.40
2019-03-20T05:54:47.011Z,15.20
2019-03-20T05:57:15.547Z,12.63
2019-03-20T05:59:43.953Z,15.70
2019-03-20T06:02:12.413Z,22.93
2019-03-20T06:04:40.896Z,16.47
2019-03-20T06:07:09.361Z,20.00
2019-03-20T06:09:37.955Z,20.00
2019-03-20T06:12:06.457Z,8.57
2019-03-20T06:14:34.902Z,13.27
2019-03-20T06:17:03.369Z,16.03
2019-03-20T06:19:31.856Z,19.90
2019-03-20T06:22:00.311Z,19.13
2019-03-20T06:24:28.769Z,11.60
2019-03-20T06:26:57.273Z,26.67
2019-03-20T06:29:25.750Z,6.40
2019-03-20T06:31:54.197Z,12.20
2019-03-20T06:34:22.676Z,6.70
2019-03-20T06:36:51.139Z,25.37
2019-03-20T06:39:19.587Z,18.33
2019-03-20T06:41:48.090Z,13.83
2019-03-20T06:44:16.547Z,12.90
2019-03-20T06:46:44.998Z,5.63
2019-03-20T06:49:13.480Z,14.70
2019-03-20T06:51:41.956Z,11.83
2019-03-20T06:54:10.421Z,13.87
2019-03-20T06:56:38.905Z,6.90
2019-03-20T06:59:25.668Z,8.57
2019-03-20T07:01:54.222Z,18.30
2019-03-20T07:04:31.069Z,23.33
2019-03-20T07:07:05.448Z,12.10
2019-03-20T07:09:46.154Z,17.23
2019-03-20T07:12:15.104Z,9.33
2019-03-20T07:14:43.562Z,15.33
2019-03-20T07:17:12.033Z,19.33
2019-03-20T07:19:40.523Z,14.00
2019-03-20T07:22:08.969Z,18.53
2019-03-20T07:24:37.435Z,7.40
2019-03-20T07:27:05.991Z,15.10
2019-03-20T07:29:34.452Z,9.57
2019-03-20T07:32:02.897Z,7.60
2019-03-20T07:34:31.418Z,11.80
2019-03-20T07:36:59.877Z,12.37
2019-03-20T07:39:28.333Z,19.27
2019-03-20T07:41:56.846Z,13.93
2019-03-20T07:44:25.315Z,11.67
2019-03-20T07:46:53.831Z,6.30
2019-03-20T07:49:22.311Z,6.37
2019-03-20T07:51:50.786Z,7.13
2019-03-20T07:54:19.233Z,15.53
2019-03-20T07:56:47.721Z,16.70
2019-03-20T07:59:16.175Z,8.53
2019-03-20T08:01:44.626Z,6.60
2019-03-20T08:04:13.109Z,13.37
2019-03-20T08:06:41.562Z,13.40
2019-03-20T08:09:10.020Z,25.23
2019-03-20T08:11:38.520Z,10.90
2019-03-20T08:14:07.206Z,15.47
2019-03-20T08:16:35.668Z,10.30
2019-03-20T08:19:04.234Z,12.30
2019-03-20T08:21:32.693Z,29.93
2019-03-20T08:24:01.148Z,10.70
2019-03-20T08:26:29.726Z,14.40
2019-03-20T08:28:58.223Z,10.63
2019-03-20T08:31:26.689Z,19.77
2019-03-20T08:33:55.175Z,19.87
2019-03-20T08:36:23.633Z,14.73
2019-03-20T08:38:52.088Z,11.70
2019-03-20T08:41:20.569Z,25.80
2019-03-20T08:43:49.031Z,6.60
2019-03-20T08:46:17.495Z,15.63
2019-03-20T08:48:48.324Z,15.03
2019-03-20T08:51:16.191Z,23.43
2019-03-20T08:53:44.643Z,8.33
2019-03-20T08:56:13.164Z,7.03
2019-03-20T08:58:41.630Z,17.97
2019-03-20T09:01:10.092Z,13.77
2019-03-20T09:03:38.584Z,13.17
2019-03-20T09:06:07.049Z,20.37
2019-03-20T09:08:35.591Z,13.50
2019-03-20T09:11:04.062Z,17.03
2019-03-20T09:13:32.676Z,17.03
2019-03-20T09:16:01.535Z,22.53
2019-03-20T09:18:30.045Z,21.27
2019-03-20T09:20:58.532Z,14.43
2019-03-20T09:23:26.990Z,31.60
2019-03-20T09:25:55.494Z,22.37
2019-03-20T09:28:23.952Z,13.47
2019-03-20T09:30:52.435Z,20.83
2019-03-20T09:33:20.923Z,29.53
2019-03-20T09:35:51.135Z,26.73
2019-03-20T09:38:19.610Z,19.60
2019-03-20T09:40:48.130Z,17.50
2019-03-20T09:43:16.613Z,20.50
2019-03-20T09:45:45.116Z,29.83
2019-03-20T09:48:13.577Z,23.80
2019-03-20T09:50:42.031Z,28.50
2019-03-20T09:53:10.540Z,29.43
2019-03-20T09:55:39.014Z,34.53
2019-03-20T09:58:11.481Z,26.27
2019-03-20T10:00:37.691Z,29.03
2019-03-20T10:03:06.150Z,37.23
2019-03-20T10:05:34.635Z,31.50
2019-03-20T10:08:03.181Z,29.80
2019-03-20T10:10:32.091Z,37.87
2019-03-20T10:13:00.611Z,32.47
2019-03-20T10:15:30.260Z,36.03
2019-03-20T10:17:58.847Z,32.37
2019-03-20T10:20:27.389Z,35.83
2019-03-20T10:22:55.888Z,31.73
2019-03-20T10:25:24.410Z,33.40
2019-03-20T10:27:52.887Z,33.83
2019-03-20T10:30:25.013Z,32.70
2019-03-20T10:32:53.498Z,32.20
2019-03-20T10:35:22.046Z,16.10
2019-03-20T10:37:50.543Z,19.33
2019-03-20T10:40:26.129Z,19.43
2019-03-20T10:42:54.595Z,16.40
2019-03-20T10:45:23.118Z,26.97
2019-03-20T10:47:53.260Z,27.13
2019-03-20T10:50:23.285Z,18.57
2019-03-20T10:52:51.773Z,26.07
2019-03-20T10:55:20.238Z,21.90
2019-03-20T10:57:48.773Z,23.03
2019-03-20T11:00:24.586Z,26.43
2019-03-20T11:02:53.056Z,21.57
2019-03-20T11:05:21.664Z,18.10
2019-03-20T11:07:50.235Z,20.90
2019-03-20T11:10:26.745Z,15.33
2019-03-20T11:12:55.424Z,27.50
2019-03-20T11:15:24.738Z,19.63
2019-03-20T11:17:53.202Z,29.27
2019-03-20T11:20:22.803Z,22.90
2019-03-20T11:22:51.374Z,22.40
2019-03-20T11:25:24.855Z,32.53
2019-03-20T11:27:53.378Z,125.67
2019-03-20T11:30:32.010Z,41.50
2019-03-20T11:33:00.520Z,34.23
2019-03-20T11:35:28.985Z,61.70
2019-03-20T11:37:57.456Z,43.23
2019-03-20T11:40:39.953Z,26.70
2019-03-20T11:43:08.428Z,36.17
2019-03-20T11:45:36.898Z,43.03
2019-03-20T11:48:05.754Z,38.30
2019-03-20T11:50:41.712Z,32.50
2019-03-20T11:53:10.694Z,27.97
2019-03-20T11:55:39.222Z,30.77
2019-03-20T11:58:07.992Z,32.93
2019-03-20T12:00:36.532Z,32.87
2019-03-20T12:03:05.531Z,35.77
2019-03-20T12:05:34.004Z,38.17
2019-03-20T12:08:02.594Z,33.73
2019-03-20T12:10:32.324Z,41.30
2019-03-20T12:13:00.774Z,25.10
2019-03-20T12:15:29.298Z,31.37
2019-03-20T12:17:57.761Z,30.80
2019-03-20T12:20:26.796Z,41.57
2019-03-20T12:22:55.498Z,24.57
2019-03-20T12:25:28.601Z,30.00
2019-03-20T12:27:57.139Z,29.37
2019-03-20T12:30:38.981Z,27.97
2019-03-20T12:33:07.508Z,33.63
2019-03-20T12:35:40.559Z,39.03
2019-03-20T12:38:14.865Z,23.67
2019-03-20T12:40:39.255Z,37.93
2019-03-20T12:43:07.792Z,29.30
2019-03-20T12:45:39.928Z,34.60
2019-03-20T12:48:13.681Z,40.30
2019-03-20T12:50:42.147Z,31.83
2019-03-20T12:53:20.026Z,27.90
2019-03-20T12:55:48.487Z,25.97
2019-03-20T12:58:16.958Z,40.13
2019-03-20T13:05:41.436Z,29.60
2019-03-20T13:08:09.945Z,29.33
2019-03-20T13:10:38.446Z,24.90
2019-03-20T13:13:07.370Z,30.97
2019-03-20T13:15:35.972Z,28.00
2019-03-20T13:18:04.441Z,34.93
2019-03-20T13:20:34.497Z,28.70
2019-03-20T13:23:09.849Z,24.00
2019-03-20T13:25:38.607Z,31.03
2019-03-20T13:28:07.079Z,31.10
2019-03-20T13:30:57.125Z,28.70
2019-03-20T13:33:26.364Z,31.47
2019-03-20T13:35:54.956Z,39.27
2019-03-20T13:38:23.466Z,28.40
2019-03-20T13:40:52.618Z,32.43
2019-03-20T13:43:21.074Z,33.13
2019-03-20T13:45:49.560Z,25.80
2019-03-20T13:48:18.037Z,44.43
2019-03-20T13:50:46.494Z,31.70
2019-03-20T13:53:15.499Z,35.90
2019-03-20T13:55:44.152Z,31.67
2019-03-20T13:58:12.696Z,36.90
2019-03-20T14:00:41.251Z,27.40
2019-03-20T14:03:09.717Z,36.00
2019-03-20T14:05:38.196Z,32.07
2019-03-20T14:08:06.708Z,37.57
2019-03-20T14:10:49.523Z,36.30
2019-03-20T14:13:05.473Z,30.43
2019-03-20T14:15:33.964Z,28.97
2019-03-20T14:18:02.438Z,38.07
2019-03-20T14:20:32.445Z,30.40
2019-03-20T14:23:01.295Z,34.10
2019-03-20T14:25:29.800Z,33.07
2019-03-20T14:27:58.329Z,30.57
2019-03-20T14:30:30.657Z,33.60
2019-03-20T14:32:59.298Z,35.47
2019-03-20T14:35:28.129Z,29.73
2019-03-20T14:37:56.691Z,32.87
2019-03-20T14:40:35.458Z,25.30
2019-03-20T14:42:58.575Z,28.13
2019-03-20T14:45:27.195Z,26.27
2019-03-20T14:47:55.669Z,28.07
2019-03-20T14:50:25.947Z,32.10
2019-03-20T14:52:54.519Z,28.50
2019-03-20T14:55:22.983Z,29.87
2019-03-20T14:57:51.514Z,26.17
2019-03-20T15:00:30.102Z,41.00
2019-03-20T15:02:58.604Z,27.37
2019-03-20T15:05:27.055Z,25.53
2019-03-20T15:07:55.644Z,23.20
2019-03-20T15:10:26.111Z,31.00
2019-03-20T15:12:55.023Z,19.97
2019-03-20T15:15:29.633Z,25.83
2019-03-20T15:17:58.173Z,22.77
2019-03-20T15:20:26.627Z,29.00
2019-03-20T15:22:55.211Z,24.87
2019-03-20T15:25:23.900Z,28.73
2019-03-20T15:27:52.370Z,21.90
2019-03-20T15:30:25.267Z,28.60
2019-03-20T15:32:53.803Z,28.73
2019-03-20T15:35:22.425Z,18.90
2019-03-20T15:37:50.923Z,19.77
2019-03-20T15:40:20.840Z,27.33
2019-03-20T15:42:49.299Z,30.33
2019-03-20T15:45:18.752Z,30.37
2019-03-20T15:47:47.289Z,27.70
2019-03-20T15:50:17.609Z,33.23
2019-03-20T15:52:46.124Z,26.47
2019-03-20T15:55:20.248Z,27.10
2019-03-20T15:57:48.725Z,26.07
2019-03-20T16:00:19.167Z,30.63
2019-03-20T16:02:48.276Z,23.00
2019-03-20T16:05:16.739Z,23.93
2019-03-20T16:07:45.302Z,37.60
2019-03-20T16:10:23.459Z,31.20
2019-03-20T16:12:54.070Z,32.27
2019-03-20T16:15:23.274Z,28.20
2019-03-20T16:17:51.801Z,30.13
2019-03-20T16:20:20.392Z,25.07
2019-03-20T16:22:48.853Z,42.93
2019-03-20T16:25:19.639Z,27.87
2019-03-20T16:27:48.542Z,34.13
2019-03-20T16:30:22.557Z,27.10
2019-03-20T16:32:51.087Z,38.27
2019-03-20T16:35:19.580Z,36.57
2019-03-20T16:37:48.120Z,29.23
2019-03-20T16:40:21.455Z,32.73
2019-03-20T16:42:50.095Z,26.93
2019-03-20T16:45:21.362Z,43.00
2019-03-20T16:47:49.828Z,50.23
2019-03-20T16:50:18.800Z,35.10
2019-03-20T16:52:47.266Z,28.10
2019-03-20T16:55:16.476Z,40.00
2019-03-20T16:57:45.059Z,34.13
2019-03-20T17:00:30.529Z,34.70
2019-03-20T17:02:59.191Z,34.90
2019-03-20T17:05:28.266Z,33.90
2019-03-20T17:07:56.817Z,33.93
2019-03-20T17:10:42.363Z,47.63
2019-03-20T17:13:10.824Z,37.93
2019-03-20T17:15:40.730Z,30.67
2019-03-20T17:18:09.307Z,35.23
2019-03-20T17:20:37.903Z,40.87
2019-03-20T17:23:07.837Z,42.60
2019-03-20T17:25:36.682Z,30.13
2019-03-20T17:28:05.870Z,42.43
2019-03-20T17:30:46.606Z,32.73
2019-03-20T17:33:15.076Z,33.40
2019-03-20T17:35:43.546Z,37.30
2019-03-20T17:38:12.084Z,32.83
2019-03-20T17:40:40.524Z,28.33
2019-03-20T17:43:09.008Z,38.67
2019-03-20T17:45:38.821Z,31.00
2019-03-20T17:48:07.298Z,32.67
2019-03-20T17:50:35.931Z,41.17
2019-03-20T17:53:05.462Z,31.40
2019-03-20T17:55:33.925Z,31.07
2019-03-20T17:58:02.484Z,37.93
2019-03-20T18:00:39.486Z,43.53
2019-03-20T18:03:08.518Z,36.70
2019-03-20T18:05:37.062Z,33.63
2019-03-20T18:08:08.986Z,43.30
2019-03-20T18:10:37.534Z,36.40
2019-03-20T18:13:07.720Z,38.80
2019-03-20T18:15:36.437Z,48.27
2019-03-20T18:18:06.070Z,45.00
2019-03-20T18:20:34.540Z,44.00
2019-03-20T18:23:03.055Z,47.00
2019-03-20T18:25:31.526Z,50.50
2019-03-20T18:27:59.992Z,48.00
2019-03-20T18:30:36.095Z,43.40
2019-03-20T18:33:05.357Z,45.70
2019-03-20T18:35:33.817Z,39.33
2019-03-20T18:38:02.315Z,43.37
2019-03-20T18:40:30.843Z,47.20
2019-03-20T18:42:59.312Z,47.40
2019-03-20T18:45:27.988Z,48.17
2019-03-20T18:47:56.755Z,41.80
2019-03-20T18:50:25.590Z,46.97
2019-03-20T18:52:54.103Z,44.87
2019-03-20T18:55:22.561Z,45.43
2019-03-20T18:57:51.165Z,50.90
2019-03-20T19:00:22.467Z,42.00
2019-03-20T19:02:52.486Z,47.87
2019-03-20T19:05:42.132Z,44.90
2019-03-20T19:08:10.621Z,52.83
2019-03-20T19:10:39.172Z,52.37
2019-03-20T19:13:07.760Z,51.43
2019-03-20T19:15:36.289Z,49.90
2019-03-20T19:18:05.322Z,50.17
2019-03-20T19:20:33.930Z,53.80
2019-03-20T19:23:02.450Z,60.10
2019-03-20T19:25:30.946Z,57.80
2019-03-20T19:27:59.452Z,50.80
2019-03-20T19:30:29.604Z,62.67
2019-03-20T19:32:58.069Z,54.43
2019-03-20T19:35:26.852Z,54.90
2019-03-20T19:37:55.407Z,54.97
2019-03-20T19:40:23.960Z,59.37
2019-03-20T19:42:52.461Z,59.53
2019-03-20T19:45:20.928Z,52.53
2019-03-20T19:47:49.398Z,68.17
2019-03-20T19:50:22.350Z,49.33
2019-03-20T19:52:50.809Z,52.93
2019-03-20T19:55:19.459Z,53.23
2019-03-20T19:57:47.987Z,65.20
2019-03-20T20:00:24.610Z,65.93
2019-03-20T20:02:53.127Z,54.60
2019-03-20T20:05:21.611Z,71.33
2019-03-20T20:07:50.087Z,53.57
2019-03-20T20:10:20.288Z,49.10
2019-03-20T20:12:48.829Z,61.10
2019-03-20T20:15:27.873Z,57.10
2019-03-20T20:17:56.428Z,56.20
2019-03-20T20:20:32.682Z,60.73
2019-03-20T20:23:01.149Z,64.27
2019-03-20T20:25:29.604Z,58.27
2019-03-20T20:27:58.130Z,63.13
2019-03-20T20:30:26.596Z,73.90
2019-03-20T20:32:55.077Z,67.60
2019-03-20T20:35:23.587Z,59.20
2019-03-20T20:37:52.333Z,67.20
2019-03-20T20:40:28.410Z,65.70
2019-03-20T20:42:56.884Z,59.13
2019-03-20T20:45:25.370Z,63.00
2019-03-20T20:47:53.865Z,65.47
2019-03-20T20:50:22.394Z,58.93
2019-03-20T20:52:50.857Z,87.93
2019-03-20T20:55:23.133Z,71.37
2019-03-20T20:57:51.608Z,59.87
2019-03-20T21:00:25.129Z,74.97
2019-03-20T21:02:53.712Z,72.50
2019-03-20T21:05:22.250Z,75.93
2019-03-20T21:07:50.717Z,64.33
2019-03-20T21:10:24.443Z,77.20
2019-03-20T21:12:56.710Z,64.93
2019-03-20T21:15:32.671Z,67.33
2019-03-20T21:18:16.611Z,72.00
2019-03-20T21:20:46.310Z,64.87
2019-03-20T21:23:38.579Z,76.70
2019-03-20T21:26:12.268Z,74.50
2019-03-20T21:28:52.686Z,70.90
2019-03-20T21:31:24.496Z,83.57
2019-03-20T21:33:56.155Z,64.00
2019-03-20T21:36:44.556Z,70.50
2019-03-20T21:39:13.303Z,74.53
2019-03-20T21:42:06.306Z,68.93
2019-03-20T21:44:37.949Z,88.50
2019-03-20T21:47:21.892Z,63.47
2019-03-20T21:49:50.448Z,72.93
2019-03-20T21:52:18.919Z,71.57
2019-03-20T21:55:10.188Z,72.73
2019-03-20T21:57:44.656Z,67.27
2019-03-20T22:00:31.665Z,71.67
2019-03-20T22:03:00.128Z,86.73
2019-03-20T22:05:43.577Z,77.30
2019-03-20T22:08:12.048Z,74.97
2019-03-20T22:11:04.670Z,91.33
2019-03-20T22:13:45.383Z,85.30
2019-03-20T22:16:50.385Z,78.20
2019-03-20T22:19:41.402Z,85.13
2019-03-20T22:22:15.732Z,78.93
2019-03-20T22:25:02.417Z,74.00
2019-03-20T22:27:50.629Z,76.40
2019-03-20T22:30:19.096Z,80.20
2019-03-20T22:33:07.516Z,69.77
2019-03-20T22:35:47.664Z,77.07
2019-03-20T22:38:30.954Z,78.97
2019-03-20T22:41:03.374Z,83.53
2019-03-20T22:43:35.071Z,95.83
2019-03-20T22:46:38.208Z,94.47
2019-03-20T22:49:18.911Z,92.90
2019-03-20T22:51:50.564Z,91.27
2019-03-20T22:54:39.654Z,93.83
2019-03-20T22:57:13.964Z,90.80
2019-03-20T22:59:42.435Z,95.90
2019-03-20T23:02:14.127Z,102.47
2019-03-20T23:04:48.879Z,94.07
2019-03-20T23:07:17.349Z,92.10
2019-03-20T23:09:45.867Z,88.73
2019-03-20T23:12:14.749Z,94.97
2019-03-20T23:14:43.283Z,94.30
2019-03-20T23:17:11.778Z,90.37
2019-03-20T23:19:41.586Z,78.83
2019-03-20T23:22:10.320Z,88.93
2019-03-20T23:24:38.828Z,82.80
2019-03-20T23:27:13.582Z,87.13
2019-03-20T23:29:42.049Z,90.90
2019-03-20T23:32:10.817Z,91.53
2019-03-20T23:34:39.277Z,90.77
2019-03-20T23:37:07.741Z,92.57
2019-03-20T23:39:36.322Z,89.77
2019-03-20T23:42:05.460Z,93.17
2019-03-20T23:44:33.919Z,91.67
2019-03-20T23:47:02.432Z,92.93
2019-03-20T23:49:30.901Z,90.80
2019-03-20T23:51:59.379Z,97.77
2019-03-20T23:54:31.104Z,107.23
2019-03-20T23:56:59.569Z,89.30
2019-03-20T23:59:28.032Z,98.67
